LFBO Airport Information

Runway Information
Runway 14R Length 11483 ft width 148 ft
Elevation 488 ft Threshold ft Heading 143
Runway 32L Length 11483 ft Width 148 ft
Elevation 497 ft Threshold ft Heading 323
Runway 14L Length 9843 ft width 148 ft
Elevation 490 ft Threshold ft Heading 143
Runway 32R Length 9843 ft Width 148 ft
Elevation 497 ft Threshold ft Heading 323
Airport Frequencies
Type AFIS Name TOULOUSE I Frequency 121.25 MHZ
Type APP Name APP Frequency 121.1 MHZ
Type APP Name TOULOUSE A Frequency 125.175 MHZ
Type ATIS Name ATIS Frequency 123.125 MHZ
Type CLD Name CLNC DEL Frequency 121.7 MHZ
Type GND Name GND Frequency 121.9 MHZ
Type TWR Name TWR Frequency 118.1 MHZ
Airport Navaids
Type NDB Name Toulouse Frequency 415 KHZ
Type VOR-DME Name Toulouse Frequency 117700 KHZ
Type NDB Name Toulouse Frequency 423 KHZ
Type NDB Name Toulouse Frequency 406 KHZ
Airport Weather Information & NOTAM
ADDS - METARS form results

(1623 UTC 07 July 2022)
Data provider http://aviationweather.gov/metar/data/
 
METAR text: LFBO 071600Z AUTO 31014KT CAVOK 29/12 Q1025 TEMPO 30015G25KT
Conditions at: LFBO (TOULOUSE/BLAGNAC, FR) observed 1600 UTC 07 July 2022
Temperature: 29.0°C (84°F)
Dewpoint: 12.0°C (54°F) [RH = 35%]
Pressure (altimeter): 30.27 inches Hg (1025.0 mb)
Winds: from the NW (310 degrees) at 16 MPH (14 knots; 7.2 m/s)
Visibility: 6 or more miles (10+ km)
Ceiling: ceiling and visibility are OK
Clouds: unknown
Weather: no significant weather observed at this time

METAR text: LFBO 071530Z AUTO 32016KT 290V350 CAVOK 30/12 Q1025 TEMPO 30015G25KT
Conditions at: LFBO (TOULOUSE/BLAGNAC, FR) observed 1530 UTC 07 July 2022
Temperature: 30.0°C (86°F)
Dewpoint: 12.0°C (54°F) [RH = 33%]
Pressure (altimeter): 30.27 inches Hg (1025.0 mb)
Winds: from the NW (320 degrees) at 18 MPH (16 knots; 8.2 m/s)
Visibility: 6 or more miles (10+ km)
Ceiling: ceiling and visibility are OK
Clouds: unknown
Weather: no significant weather observed at this time

Forecast for: LFBO (TOULOUSE/BLAGNAC, FR)
Text: TAF LFBO 071100Z 0712/0818 30012KT CAVOK
Forecast period: 1200 UTC 07 July 2022 to 1800 UTC 08 July 2022
Forecast type: FROM: standard forecast or significant change
Winds: from the WNW (300 degrees) at 14 MPH (12 knots; 6.2 m/s)
Visibility: 6 or more miles (10+ km)
Ceiling: unknown
Clouds: missing
Weather: NSW  (no significant weather)
Text: PROB40
Forecast period: 1200 to 1800 UTC 07 July 2022
Forecast type: TEMPORARY: The following changes expected for less than half the time period
Winds: from the WNW (300 degrees) at 17 MPH (15 knots; 7.7 m/s)
gusting to 29 MPH (25 knots; 12.9 m/s)
Visibility: missing
Ceiling: unknown
Clouds: missing
Weather: no significant weather forecast for this period